createdAt,value
2019-03-20T00:00:20.176Z,41.05
2019-03-20T00:02:49.205Z,27.80
2019-03-20T00:05:17.743Z,29.55
2019-03-20T00:07:46.211Z,38.98
2019-03-20T00:10:14.730Z,27.90
2019-03-20T00:12:43.149Z,32.67
2019-03-20T00:15:13.347Z,34.55
2019-03-20T00:17:41.826Z,38.90
2019-03-20T00:20:14.354Z,32.28
2019-03-20T00:22:43.351Z,33.83
2019-03-20T00:25:12.305Z,43.92
2019-03-20T00:27:40.883Z,42.35
2019-03-20T00:30:12.538Z,36.65
2019-03-20T00:32:41.124Z,38.35
2019-03-20T00:35:09.714Z,33.95
2019-03-20T00:37:38.188Z,39.35
2019-03-20T00:40:14.497Z,31.20
2019-03-20T00:42:42.966Z,39.70
2019-03-20T00:45:13.546Z,38.28
2019-03-20T00:47:42.014Z,36.42
2019-03-20T00:50:13.027Z,35.10
2019-03-20T00:52:41.451Z,33.85
2019-03-20T00:55:11.440Z,32.42
2019-03-20T00:57:40.016Z,32.00
2019-03-20T01:00:19.742Z,35.25
2019-03-20T01:02:48.245Z,34.20
2019-03-20T01:05:16.774Z,41.80
2019-03-20T01:07:45.544Z,32.42
2019-03-20T01:10:19.075Z,42.17
2019-03-20T01:12:47.611Z,42.78
2019-03-20T01:15:16.597Z,45.58
2019-03-20T01:17:45.555Z,50.80
2019-03-20T01:20:17.090Z,58.10
2019-03-20T01:22:45.666Z,75.17
2019-03-20T01:25:14.855Z,76.15
2019-03-20T01:27:43.331Z,75.15
2019-03-20T01:30:36.332Z,67.25
2019-03-20T01:33:06.408Z,71.65
2019-03-20T01:35:34.877Z,84.55
2019-03-20T01:38:03.675Z,85.92
2019-03-20T01:40:32.139Z,77.60
2019-03-20T01:43:00.625Z,103.15
2019-03-20T01:45:29.089Z,129.95
2019-03-20T01:47:57.569Z,194.13
2019-03-20T01:50:25.997Z,157.62
2019-03-20T01:52:55.418Z,134.85
2019-03-20T01:55:23.985Z,131.80
2019-03-20T01:57:52.477Z,140.65
2019-03-20T02:00:20.940Z,141.35
2019-03-20T02:02:49.381Z,125.70
2019-03-20T02:05:17.860Z,126.18
2019-03-20T02:07:46.322Z,157.88
2019-03-20T02:10:16.584Z,138.22
2019-03-20T02:12:45.067Z,148.47
2019-03-20T02:15:17.773Z,142.82
2019-03-20T02:17:46.222Z,137.35
2019-03-20T02:20:16.037Z,157.80
2019-03-20T02:22:44.587Z,146.07
2019-03-20T02:25:13.823Z,171.25
2019-03-20T02:27:42.414Z,158.57
2019-03-20T02:30:18.967Z,150.78
2019-03-20T02:32:47.563Z,167.62
2019-03-20T02:35:16.047Z,172.47
2019-03-20T02:37:44.599Z,159.63
2019-03-20T02:40:14.164Z,176.10
2019-03-20T02:42:42.807Z,207.22
2019-03-20T02:45:16.058Z,193.13
2019-03-20T02:47:44.811Z,218.33
2019-03-20T02:50:16.978Z,174.72
2019-03-20T02:52:45.417Z,164.85
2019-03-20T02:55:13.960Z,185.50
2019-03-20T02:57:42.423Z,192.82
2019-03-20T03:00:20.965Z,185.25
2019-03-20T03:02:49.493Z,155.93
2019-03-20T03:05:18.442Z,203.40
2019-03-20T03:07:46.977Z,154.78
2019-03-20T03:10:18.985Z,167.10
2019-03-20T03:12:47.573Z,160.12
2019-03-20T03:15:17.143Z,177.72
2019-03-20T03:17:45.645Z,158.72
2019-03-20T03:20:15.104Z,138.35
2019-03-20T03:22:43.774Z,170.10
2019-03-20T03:25:13.383Z,163.97
2019-03-20T03:27:41.903Z,145.28
2019-03-20T03:30:15.337Z,130.07
2019-03-20T03:32:43.801Z,135.15
2019-03-20T03:35:17.241Z,141.50
2019-03-20T03:37:43.040Z,148.20
2019-03-20T03:40:16.344Z,137.30
2019-03-20T03:42:45.094Z,101.97
2019-03-20T03:45:15.818Z,122.25
2019-03-20T03:47:44.537Z,106.92
2019-03-20T03:50:13.915Z,75.00
2019-03-20T03:52:42.481Z,91.80
2019-03-20T03:55:12.933Z,68.75
2019-03-20T03:57:41.500Z,79.03
2019-03-20T04:00:18.741Z,69.25
2019-03-20T04:02:47.293Z,60.33
2019-03-20T04:05:15.769Z,71.60
2019-03-20T04:07:44.279Z,59.23
2019-03-20T04:10:15.134Z,67.00
2019-03-20T04:12:43.673Z,54.27
2019-03-20T04:15:15.727Z,66.30
2019-03-20T04:17:44.363Z,59.13
2019-03-20T04:20:16.007Z,59.08
2019-03-20T04:22:44.611Z,67.08
2019-03-20T04:25:14.076Z,59.20
2019-03-20T04:27:42.703Z,60.67
2019-03-20T04:30:18.761Z,51.77
2019-03-20T04:32:47.363Z,53.33
2019-03-20T04:35:16.335Z,44.63
2019-03-20T04:37:44.785Z,46.43
2019-03-20T04:40:17.220Z,42.85
2019-03-20T04:42:45.686Z,39.43
2019-03-20T04:45:20.233Z,42.30
2019-03-20T04:47:48.768Z,41.37
2019-03-20T04:50:17.764Z,39.23
2019-03-20T04:52:46.212Z,39.53
2019-03-20T04:55:14.800Z,35.10
2019-03-20T04:57:45.647Z,35.73
2019-03-20T05:00:21.305Z,35.97
2019-03-20T05:02:49.796Z,40.25
2019-03-20T05:05:18.366Z,44.33
2019-03-20T05:07:46.817Z,40.60
2019-03-20T05:10:18.999Z,39.25
2019-03-20T05:12:47.431Z,36.75
2019-03-20T05:15:15.975Z,28.23
2019-03-20T05:17:44.520Z,30.72
2019-03-20T05:20:17.893Z,30.43
2019-03-20T05:22:46.443Z,36.10
2019-03-20T05:25:14.989Z,28.32
2019-03-20T05:27:43.605Z,37.63
2019-03-20T05:30:15.691Z,26.57
2019-03-20T05:32:44.181Z,33.85
2019-03-20T05:35:12.836Z,37.15
2019-03-20T05:37:41.275Z,29.12
2019-03-20T05:40:17.543Z,35.85
2019-03-20T05:42:46.103Z,28.67
2019-03-20T05:45:15.695Z,36.00
2019-03-20T05:47:44.188Z,32.00
2019-03-20T05:50:15.085Z,35.58
2019-03-20T05:55:11.141Z,34.65
2019-03-20T05:57:42.571Z,32.42
2019-03-20T06:00:16.597Z,35.55
2019-03-20T06:02:45.152Z,33.75
2019-03-20T06:05:13.680Z,28.97
2019-03-20T06:07:42.133Z,31.77
2019-03-20T06:10:13.289Z,32.03
2019-03-20T06:12:42.756Z,35.63
2019-03-20T06:15:11.375Z,30.60
2019-03-20T06:17:39.836Z,30.32
2019-03-20T06:20:13.389Z,39.60
2019-03-20T06:22:41.815Z,28.55
2019-03-20T06:25:15.104Z,29.35
2019-03-20T06:27:43.706Z,29.52
2019-03-20T06:30:21.686Z,42.62
2019-03-20T06:32:50.985Z,32.20
2019-03-20T06:35:19.439Z,34.53
2019-03-20T06:37:47.883Z,39.05
2019-03-20T06:40:17.246Z,44.03
2019-03-20T06:42:45.797Z,41.70
2019-03-20T06:45:16.722Z,39.85
2019-03-20T06:47:45.171Z,42.78
2019-03-20T06:50:19.250Z,33.58
2019-03-20T06:52:47.751Z,45.75
2019-03-20T06:55:16.146Z,40.28
2019-03-20T06:57:44.616Z,34.70
2019-03-20T07:00:41.804Z,32.38
2019-03-20T07:03:19.015Z,33.63
2019-03-20T07:05:56.286Z,34.13
2019-03-20T07:08:27.867Z,41.20
2019-03-20T07:11:07.145Z,29.02
2019-03-20T07:13:35.620Z,30.32
2019-03-20T07:16:04.521Z,36.75
2019-03-20T07:18:33.262Z,30.35
2019-03-20T07:21:01.677Z,32.67
2019-03-20T07:23:30.218Z,37.98
2019-03-20T07:25:58.621Z,30.95
2019-03-20T07:28:27.091Z,30.62
2019-03-20T07:30:55.483Z,26.87
2019-03-20T07:33:23.975Z,32.42
2019-03-20T07:35:52.440Z,31.77
2019-03-20T07:38:20.990Z,25.55
2019-03-20T07:40:49.428Z,31.62
2019-03-20T07:43:17.926Z,24.83
2019-03-20T07:45:46.422Z,30.43
2019-03-20T07:48:22.070Z,25.07
2019-03-20T07:50:45.029Z,26.37
2019-03-20T07:53:13.532Z,21.90
2019-03-20T07:55:41.989Z,22.67
2019-03-20T07:58:10.448Z,29.90
2019-03-20T08:00:38.860Z,23.47
2019-03-20T08:03:07.332Z,24.55
2019-03-20T08:05:36.198Z,29.90
2019-03-20T08:08:07.452Z,31.23
2019-03-20T08:10:34.901Z,26.53
2019-03-20T08:13:03.400Z,23.57
2019-03-20T08:15:31.870Z,25.08
2019-03-20T08:18:00.278Z,26.60
2019-03-20T08:20:29.683Z,26.15
2019-03-20T08:22:58.124Z,18.30
2019-03-20T08:25:26.594Z,26.02
2019-03-20T08:27:55.015Z,22.30
2019-03-20T08:30:23.491Z,23.53
2019-03-20T08:32:51.902Z,21.07
2019-03-20T08:35:20.364Z,17.37
2019-03-20T08:37:48.763Z,21.45
2019-03-20T08:40:18.171Z,18.50
2019-03-20T08:42:46.576Z,21.52
2019-03-20T08:45:17.228Z,12.23
2019-03-20T08:47:45.730Z,23.70
2019-03-20T08:50:22.834Z,18.16
2019-03-20T08:52:51.346Z,13.32
2019-03-20T08:55:20.894Z,20.77
2019-03-20T08:57:49.783Z,19.82
2019-03-20T09:00:21.139Z,12.40
2019-03-20T09:02:49.926Z,15.38
2019-03-20T09:05:18.415Z,20.60
2019-03-20T09:07:47.744Z,20.97
2019-03-20T09:10:26.424Z,18.73
2019-03-20T09:12:54.853Z,24.12
2019-03-20T09:15:23.528Z,19.23
2019-03-20T09:17:51.983Z,17.07
2019-03-20T09:20:21.450Z,12.55
2019-03-20T09:22:49.912Z,14.13
2019-03-20T09:25:23.539Z,14.55
2019-03-20T09:27:51.962Z,15.40
2019-03-20T09:30:23.527Z,15.23
2019-03-20T09:32:52.051Z,17.35
2019-03-20T09:35:20.690Z,17.27
2019-03-20T09:37:52.287Z,11.93
2019-03-20T09:40:23.872Z,17.70
2019-03-20T09:42:52.559Z,14.20
2019-03-20T09:45:22.922Z,17.17
2019-03-20T09:47:51.466Z,14.53
2019-03-20T09:50:23.773Z,18.65
2019-03-20T09:52:52.319Z,13.72
2019-03-20T09:55:20.885Z,17.62
2019-03-20T09:57:49.449Z,13.43
2019-03-20T10:00:25.566Z,16.30
2019-03-20T10:02:54.375Z,16.02
2019-03-20T10:05:23.242Z,19.32
2019-03-20T10:07:52.082Z,19.50
2019-03-20T10:10:28.787Z,16.17
2019-03-20T10:12:57.286Z,20.68
2019-03-20T10:15:32.387Z,13.22
2019-03-20T10:18:00.887Z,13.08
2019-03-20T10:20:29.305Z,13.70
2019-03-20T10:22:57.760Z,14.80
2019-03-20T10:25:26.177Z,14.60
2019-03-20T10:27:54.646Z,11.78
2019-03-20T10:30:24.100Z,16.60
2019-03-20T10:32:52.609Z,20.93
2019-03-20T10:35:21.030Z,19.30
2019-03-20T10:37:49.482Z,20.85
2019-03-20T10:40:22.135Z,16.32
2019-03-20T10:42:50.767Z,18.23
2019-03-20T10:45:19.821Z,23.25
2019-03-20T10:47:48.653Z,20.52
2019-03-20T10:50:25.876Z,20.57
2019-03-20T10:52:54.350Z,14.13
2019-03-20T10:55:22.887Z,18.20
2019-03-20T10:57:51.322Z,17.10
2019-03-20T11:00:21.808Z,14.18
2019-03-20T11:02:50.278Z,19.43
2019-03-20T11:05:19.209Z,14.15
2019-03-20T11:07:48.062Z,13.08
2019-03-20T11:10:26.333Z,13.20
2019-03-20T11:12:55.144Z,19.23
2019-03-20T11:15:24.411Z,9.35
2019-03-20T11:17:53.074Z,8.20
2019-03-20T11:20:22.713Z,7.60
2019-03-20T11:22:51.191Z,8.10
2019-03-20T11:25:26.193Z,7.08
2019-03-20T11:27:54.788Z,6.65
2019-03-20T11:30:33.348Z,6.28
2019-03-20T11:33:01.748Z,10.13
2019-03-20T11:35:30.170Z,8.90
2019-03-20T11:37:58.675Z,6.72
2019-03-20T11:40:29.586Z,6.62
2019-03-20T11:42:58.022Z,6.35
2019-03-20T11:45:26.603Z,8.50
2019-03-20T11:47:55.034Z,10.00
2019-03-20T11:50:43.347Z,8.68
2019-03-20T11:53:11.798Z,9.68
2019-03-20T11:55:40.215Z,6.42
2019-03-20T11:58:08.711Z,8.40
2019-03-20T12:00:37.242Z,7.58
2019-03-20T12:03:05.870Z,6.90
2019-03-20T12:05:34.401Z,6.05
2019-03-20T12:08:02.834Z,4.17
2019-03-20T12:10:33.067Z,7.90
2019-03-20T12:13:01.561Z,6.37
2019-03-20T12:15:29.966Z,5.65
2019-03-20T12:17:58.523Z,7.72
2019-03-20T12:20:27.115Z,6.30
2019-03-20T12:22:55.715Z,3.07
2019-03-20T12:25:35.556Z,6.22
2019-03-20T12:28:04.205Z,3.65
2019-03-20T12:30:34.063Z,4.17
2019-03-20T12:33:02.617Z,6.30
2019-03-20T12:35:36.947Z,4.60
2019-03-20T12:38:14.321Z,6.12
2019-03-20T12:40:35.668Z,5.50
2019-03-20T12:43:04.728Z,6.20
2019-03-20T12:45:39.881Z,5.70
2019-03-20T12:48:15.656Z,7.83
2019-03-20T12:50:44.145Z,6.92
2019-03-20T12:53:18.250Z,4.83
2019-03-20T12:55:46.710Z,7.20
2019-03-20T12:58:15.210Z,4.87
2019-03-20T13:05:39.825Z,4.72
2019-03-20T13:08:08.267Z,6.12
2019-03-20T13:10:36.710Z,6.92
2019-03-20T13:13:05.247Z,7.40
2019-03-20T13:15:33.739Z,5.47
2019-03-20T13:18:02.197Z,5.70
2019-03-20T13:20:30.675Z,7.08
2019-03-20T13:23:04.978Z,6.67
2019-03-20T13:25:33.577Z,4.08
2019-03-20T13:28:02.057Z,5.30
2019-03-20T13:30:42.802Z,5.25
2019-03-20T13:33:11.202Z,9.43
2019-03-20T13:35:39.652Z,9.38
2019-03-20T13:38:08.196Z,4.42
2019-03-20T13:40:36.762Z,6.87
2019-03-20T13:43:05.254Z,7.97
2019-03-20T13:45:33.727Z,6.67
2019-03-20T13:48:02.142Z,7.37
2019-03-20T13:50:30.615Z,7.92
2019-03-20T13:52:59.077Z,8.35
2019-03-20T13:55:27.950Z,5.62
2019-03-20T13:57:56.380Z,7.67
2019-03-20T14:00:27.984Z,9.35
2019-03-20T14:02:56.410Z,7.90
2019-03-20T14:05:24.949Z,10.30
2019-03-20T14:07:53.475Z,5.92
2019-03-20T14:10:25.419Z,6.37
2019-03-20T14:12:53.136Z,7.17
2019-03-20T14:15:21.679Z,7.90
2019-03-20T14:17:50.097Z,11.15
2019-03-20T14:20:20.984Z,9.28
2019-03-20T14:22:49.527Z,9.20
2019-03-20T14:25:18.103Z,8.58
2019-03-20T14:27:46.593Z,7.87
2019-03-20T14:30:23.247Z,10.63
2019-03-20T14:32:51.725Z,8.40
2019-03-20T14:35:20.128Z,7.20
2019-03-20T14:37:48.818Z,9.95
2019-03-20T14:40:35.403Z,7.75
2019-03-20T14:42:58.949Z,9.60
2019-03-20T14:45:27.607Z,10.28
2019-03-20T14:47:56.176Z,10.55
2019-03-20T14:50:28.468Z,8.78
2019-03-20T14:52:57.011Z,9.40
2019-03-20T14:55:25.553Z,9.70
2019-03-20T14:57:54.054Z,7.53
2019-03-20T15:00:26.802Z,7.87
2019-03-20T15:02:55.582Z,7.20
2019-03-20T15:05:24.397Z,15.05
2019-03-20T15:07:52.897Z,9.55
2019-03-20T15:10:23.460Z,8.75
2019-03-20T15:12:56.459Z,8.33
2019-03-20T15:15:36.708Z,7.40
2019-03-20T15:18:06.383Z,11.97
2019-03-20T15:20:34.876Z,9.93
2019-03-20T15:23:03.394Z,9.78
2019-03-20T15:25:31.873Z,15.90
2019-03-20T15:28:00.325Z,7.22
2019-03-20T15:30:29.778Z,12.37
2019-03-20T15:32:58.422Z,9.60
2019-03-20T15:35:26.873Z,12.25
2019-03-20T15:37:55.310Z,13.03
2019-03-20T15:40:25.871Z,9.25
2019-03-20T15:42:54.331Z,11.48
2019-03-20T15:45:22.842Z,12.40
2019-03-20T15:47:51.396Z,10.95
2019-03-20T15:50:29.115Z,12.18
2019-03-20T15:52:57.561Z,9.35
2019-03-20T15:55:31.424Z,12.05
2019-03-20T15:58:00.018Z,8.38
2019-03-20T16:00:28.560Z,14.70
2019-03-20T16:03:09.058Z,10.00
2019-03-20T16:05:37.531Z,11.50
2019-03-20T16:08:06.182Z,18.30
2019-03-20T16:10:34.654Z,14.15
2019-03-20T16:13:03.302Z,12.85
2019-03-20T16:15:31.887Z,11.28
2019-03-20T16:18:00.357Z,8.43
2019-03-20T16:20:28.772Z,10.78
2019-03-20T16:22:57.234Z,12.90
2019-03-20T16:25:25.766Z,11.25
2019-03-20T16:27:54.193Z,12.03
2019-03-20T16:30:28.494Z,11.78
2019-03-20T16:32:56.976Z,8.78
2019-03-20T16:35:25.461Z,13.45
2019-03-20T16:37:53.967Z,13.80
2019-03-20T16:40:24.971Z,11.18
2019-03-20T16:45:31.359Z,12.85
2019-03-20T16:47:59.896Z,11.18
2019-03-20T16:50:28.420Z,11.95
2019-03-20T16:52:57.248Z,9.45
2019-03-20T16:55:25.782Z,9.98
2019-03-20T16:57:54.273Z,12.20
2019-03-20T17:00:25.087Z,15.20
2019-03-20T17:02:53.555Z,13.45
2019-03-20T17:05:22.688Z,13.03
2019-03-20T17:07:51.134Z,11.55
2019-03-20T17:10:34.088Z,14.93
2019-03-20T17:13:02.831Z,8.00
2019-03-20T17:15:33.312Z,12.00
2019-03-20T17:18:01.920Z,10.87
2019-03-20T17:20:30.374Z,13.22
2019-03-20T17:22:58.920Z,8.30
2019-03-20T17:25:27.399Z,11.00
2019-03-20T17:27:55.841Z,11.63
2019-03-20T17:30:27.391Z,11.12
2019-03-20T17:35:23.569Z,11.05
2019-03-20T17:37:52.010Z,11.97
2019-03-20T17:40:25.503Z,9.80
2019-03-20T17:42:53.917Z,14.20
2019-03-20T17:45:24.749Z,10.60
2019-03-20T17:47:53.376Z,12.68
2019-03-20T17:50:34.958Z,9.80
2019-03-20T17:53:04.554Z,10.35
2019-03-20T17:55:32.976Z,15.95
2019-03-20T17:58:01.486Z,8.78
2019-03-20T18:00:32.333Z,10.55
2019-03-20T18:05:28.439Z,13.22
2019-03-20T18:07:56.880Z,12.98
2019-03-20T18:10:25.379Z,14.00
2019-03-20T18:12:53.834Z,12.37
2019-03-20T18:15:22.286Z,15.03
2019-03-20T18:17:50.704Z,15.88
2019-03-20T18:20:20.270Z,12.45
2019-03-20T18:22:48.877Z,15.25
2019-03-20T18:25:17.357Z,19.57
2019-03-20T18:27:45.886Z,15.93
2019-03-20T18:30:24.784Z,14.00
2019-03-20T18:32:53.336Z,21.85
2019-03-20T18:35:21.820Z,13.78
2019-03-20T18:37:50.247Z,13.70
2019-03-20T18:40:28.373Z,17.07
2019-03-20T18:42:56.845Z,19.35
2019-03-20T18:45:26.710Z,18.17
2019-03-20T18:47:55.155Z,20.97
2019-03-20T18:50:24.310Z,25.75
2019-03-20T18:52:52.970Z,25.33
2019-03-20T18:55:21.460Z,15.18
2019-03-20T18:57:50.383Z,19.62
2019-03-20T19:00:24.573Z,20.30
2019-03-20T19:02:55.138Z,19.15
2019-03-20T19:05:35.280Z,20.03
2019-03-20T19:08:04.250Z,21.17
2019-03-20T19:10:32.866Z,23.32
2019-03-20T19:13:01.433Z,19.27
2019-03-20T19:15:30.033Z,15.88
2019-03-20T19:17:58.519Z,22.32
2019-03-20T19:20:26.947Z,17.17
2019-03-20T19:22:55.424Z,16.40
2019-03-20T19:25:23.851Z,17.27
2019-03-20T19:27:52.331Z,29.10
2019-03-20T19:30:27.209Z,22.50
2019-03-20T19:32:55.784Z,21.15
2019-03-20T19:35:24.314Z,20.27
2019-03-20T19:37:52.874Z,25.35
2019-03-20T19:40:23.081Z,21.20
2019-03-20T19:42:51.720Z,21.20
2019-03-20T19:45:20.214Z,26.33
2019-03-20T19:47:48.675Z,22.42
2019-03-20T19:50:20.698Z,24.10
2019-03-20T19:52:49.191Z,21.65
2019-03-20T19:55:18.328Z,23.76
2019-03-20T19:57:46.787Z,22.52
2019-03-20T20:00:16.712Z,21.48
2019-03-20T20:02:45.544Z,24.18
2019-03-20T20:05:16.025Z,17.80
2019-03-20T20:07:45.045Z,21.65
2019-03-20T20:10:17.426Z,25.85
2019-03-20T20:12:46.093Z,19.32
2019-03-20T20:15:20.273Z,23.38
2019-03-20T20:17:49.544Z,18.00
2019-03-20T20:20:23.655Z,21.80
2019-03-20T20:22:52.209Z,19.85
2019-03-20T20:25:20.736Z,22.22
2019-03-20T20:27:50.111Z,21.90
2019-03-20T20:30:19.469Z,20.10
2019-03-20T20:32:48.018Z,24.27
2019-03-20T20:35:17.352Z,21.12
2019-03-20T20:37:46.571Z,19.20
2019-03-20T20:40:26.513Z,20.70
2019-03-20T20:42:54.952Z,20.43
2019-03-20T20:45:23.543Z,22.77
2019-03-20T20:47:52.032Z,19.82
2019-03-20T20:50:21.440Z,19.70
2019-03-20T20:52:49.984Z,21.48
2019-03-20T20:55:20.724Z,22.40
2019-03-20T20:57:49.227Z,28.60
2019-03-20T21:00:19.230Z,23.22
2019-03-20T21:02:47.789Z,19.25
2019-03-20T21:05:16.351Z,22.37
2019-03-20T21:07:44.883Z,20.92
2019-03-20T21:10:26.107Z,30.52
2019-03-20T21:12:57.398Z,19.23
2019-03-20T21:15:30.608Z,33.25
2019-03-20T21:18:19.895Z,24.63
2019-03-20T21:20:48.832Z,29.92
2019-03-20T21:23:38.262Z,26.25
2019-03-20T21:26:08.775Z,25.80
2019-03-20T21:29:11.759Z,21.67
2019-03-20T21:31:49.002Z,22.80
2019-03-20T21:34:32.547Z,24.63
2019-03-20T21:37:19.338Z,19.40
2019-03-20T21:39:47.770Z,23.67
2019-03-20T21:42:34.042Z,27.40
2019-03-20T21:45:41.874Z,24.52
2019-03-20T21:48:10.337Z,21.27
2019-03-20T21:50:53.877Z,21.30
2019-03-20T21:53:46.319Z,20.50
2019-03-20T21:56:20.933Z,21.60
2019-03-20T21:59:19.531Z,18.85
2019-03-20T22:02:07.267Z,26.48
2019-03-20T22:04:35.750Z,31.23
2019-03-20T22:07:12.415Z,26.27
2019-03-20T22:09:52.858Z,29.05
2019-03-20T22:12:43.897Z,25.23
2019-03-20T22:15:24.234Z,26.48
2019-03-20T22:18:10.606Z,21.40
2019-03-20T22:21:13.530Z,22.95
2019-03-20T22:24:00.039Z,27.58
2019-03-20T22:26:31.595Z,29.63
2019-03-20T22:29:06.105Z,23.35
2019-03-20T22:31:37.636Z,26.02
2019-03-20T22:34:29.022Z,28.38
2019-03-20T22:36:57.921Z,36.33
2019-03-20T22:40:05.519Z,26.02
2019-03-20T22:42:59.182Z,29.00
2019-03-20T22:45:37.422Z,26.48
2019-03-20T22:48:42.210Z,25.45
2019-03-20T22:51:30.261Z,28.12
2019-03-20T22:54:10.787Z,24.58
2019-03-20T22:56:47.980Z,22.47
2019-03-20T22:59:16.451Z,28.10
2019-03-20T23:02:16.066Z,29.03
2019-03-20T23:04:48.004Z,26.02
2019-03-20T23:07:16.482Z,25.87
2019-03-20T23:09:50.832Z,28.20
2019-03-20T23:12:19.481Z,29.45
2019-03-20T23:14:48.073Z,27.13
2019-03-20T23:17:16.675Z,26.62
2019-03-20T23:19:46.145Z,30.37
2019-03-20T23:22:14.607Z,25.30
2019-03-20T23:24:43.525Z,25.57
2019-03-20T23:27:15.611Z,23.07
2019-03-20T23:29:44.044Z,27.85
2019-03-20T23:32:12.630Z,24.72
2019-03-20T23:34:41.114Z,23.40
2019-03-20T23:37:09.542Z,24.67
2019-03-20T23:39:38.029Z,33.08
2019-03-20T23:42:06.584Z,35.17
2019-03-20T23:44:35.056Z,32.98
2019-03-20T23:47:03.506Z,45.10
2019-03-20T23:49:33.370Z,38.42
2019-03-20T23:52:02.449Z,40.00
2019-03-20T23:54:34.070Z,34.08
2019-03-20T23:57:02.715Z,43.05
2019-03-20T23:59:31.168Z,25.25
